Avoca, IN

6:51 AM EST on December 11, 2016 (GMT -0500)
Rolling Acres - WWTP | | Change Station

Elev 545 ft 38.89 °N, 86.53 °W | Updated 1 minute ago

Overcast
Overcast
33.0 °F
Feels Like 33 °F
N
2.0
Wind Variable Wind from SSE
Gusts 2.0 mph

Today
High -- | Low -- °F
--% Chance of Precip.
Yesterday
High -- | Low -- °F
Precip. -- in
Pressure 30.23 in
Visibility 10.0 miles
Clouds Mostly Cloudy 4300 ft
Overcast 5500 ft
Windchill 33 °F
Dew Point 23 °F
Humidity 66%
Rainfall 0.00 in
Snow Depth Not available.
7:55 AM 5:24 PM
Waxing Gibbous, 91% visible
METAR KBMG 111053Z AUTO 17008KT 10SM BKN043 OVC055 M01/M08 A3020 RMK AO2 SLP235 T10061078 $
Pressure 30.23 in
Visibility 10.0 miles
Clouds Mostly Cloudy 4300 ft
Overcast 5500 ft
Windchill 33 °F
Dew Point 23 °F
Humidity 66%
Rainfall 0.00 in
Snow Depth Not available.
7:55 AM 5:24 PM
Waxing Gibbous, 91% visible
METAR KBMG 111053Z AUTO 17008KT 10SM BKN043 OVC055 M01/M08 A3020 RMK AO2 SLP235 T10061078 $

10-Day Weather Forecast

Almanac

Astronomy

Dec. 11, 2016 Rise Set
Actual Time
Civil Twilight
Nautical Twilight
Astronomical Twilight
Moon
Length of Visible Light
Length of Day
Tomorrow will be .
, % of the Moon is Illuminated

Today's Extremes

State Highs State Lows

Community

WunderPhotos

Upload Photos

1,956,710 photos uploaded!

WunderBlog® & News

Nearby

Air Quality

  Air Quality AQ Index Pollutant
Not available.

Snow Depth

Station Depth Elevation

Earthquake Activity

City Distance Mag. Time & Date
Minimum magnitude displayed is 2.5.

Coastal Water Temperatures

Place Temperature

Stations

Nearby Weather Stations

Station Location Temp. Windchill Dew Point Humidity Wind Precip. Elev Updated Type
                   

Watches & Warnings

There are currently no watches in effect.